createdAt,value
2022-11-21T00:00:59.321Z,35.47
2022-11-21T00:03:25.947Z,39.53
2022-11-21T00:05:54.284Z,38.65
2022-11-21T00:08:21.952Z,37.30
2022-11-21T00:10:48.850Z,44.17
2022-11-21T00:13:17.847Z,41.10
2022-11-21T00:15:44.438Z,38.90
2022-11-21T00:18:14.154Z,41.47
2022-11-21T00:20:41.585Z,38.53
2022-11-21T00:23:08.307Z,37.60
2022-11-21T00:25:34.867Z,40.33
2022-11-21T00:28:01.261Z,41.90
2022-11-21T00:30:27.805Z,38.50
2022-11-21T00:32:54.192Z,35.80
2022-11-21T00:35:20.621Z,40.55
2022-11-21T00:37:48.606Z,38.72
2022-11-21T00:40:15.238Z,38.70
2022-11-21T00:42:41.771Z,37.70
2022-11-21T00:45:08.509Z,35.33
2022-11-21T00:47:34.940Z,38.67
2022-11-21T00:50:01.436Z,41.60
2022-11-21T00:52:27.809Z,42.42
2022-11-21T00:54:54.199Z,40.33
2022-11-21T00:57:20.582Z,43.42
2022-11-21T00:59:46.999Z,38.28
2022-11-21T01:02:13.885Z,39.08
2022-11-21T01:04:40.464Z,38.42
2022-11-21T01:07:06.894Z,41.47
2022-11-21T01:09:33.302Z,39.33
2022-11-21T01:11:59.694Z,37.17
2022-11-21T01:14:26.500Z,35.08
2022-11-21T01:16:53.143Z,40.22
2022-11-21T01:19:19.526Z,39.00
2022-11-21T01:21:45.925Z,35.63
2022-11-21T01:24:12.390Z,36.17
2022-11-21T01:26:39.253Z,41.20
2022-11-21T01:29:06.801Z,34.30
2022-11-21T01:31:33.216Z,42.28
2022-11-21T01:34:00.586Z,39.13
2022-11-21T01:36:32.055Z,39.05
2022-11-21T01:39:00.917Z,38.25
2022-11-21T01:41:36.233Z,43.42
2022-11-21T01:44:10.124Z,36.58
2022-11-21T01:46:36.526Z,44.13
2022-11-21T01:49:06.731Z,38.13
2022-11-21T01:51:55.313Z,43.03
2022-11-21T01:54:44.744Z,37.40
2022-11-21T01:57:19.047Z,39.72
2022-11-21T02:00:00.468Z,37.03
2022-11-21T02:02:33.823Z,37.75
2022-11-21T02:05:01.814Z,41.90
2022-11-21T02:07:33.516Z,38.53
2022-11-21T02:10:03.218Z,41.00
2022-11-21T02:12:41.344Z,36.67
2022-11-21T02:15:08.258Z,39.33
2022-11-21T02:17:34.670Z,44.75
2022-11-21T02:20:13.832Z,44.85
2022-11-21T02:23:14.729Z,39.72
2022-11-21T02:25:43.044Z,44.35
2022-11-21T02:28:14.860Z,42.25
2022-11-21T02:30:42.421Z,47.20
2022-11-21T02:33:10.105Z,47.90
2022-11-21T02:35:36.895Z,44.97
2022-11-21T02:38:25.193Z,43.28
2022-11-21T02:40:58.413Z,40.10
2022-11-21T02:43:29.694Z,41.60
2022-11-21T02:45:56.274Z,38.03
2022-11-21T02:48:22.665Z,38.58
2022-11-21T02:50:49.045Z,39.10
2022-11-21T02:53:18.272Z,39.05
2022-11-21T02:55:45.127Z,36.55
2022-11-21T02:58:12.362Z,38.30
2022-11-21T03:00:42.086Z,35.17
2022-11-21T03:03:08.927Z,38.75
2022-11-21T03:05:35.735Z,45.58
2022-11-21T03:08:02.281Z,39.20
2022-11-21T03:10:28.662Z,41.63
2022-11-21T03:13:01.242Z,40.03
2022-11-21T03:15:30.441Z,41.03
2022-11-21T03:17:57.006Z,40.30
2022-11-21T03:20:23.535Z,40.80
2022-11-21T03:22:50.420Z,39.88
2022-11-21T03:25:17.527Z,41.17
2022-11-21T03:27:43.951Z,43.72
2022-11-21T03:30:11.341Z,42.10
2022-11-21T03:32:37.745Z,40.70
2022-11-21T03:35:04.777Z,43.22
2022-11-21T03:37:31.162Z,49.90
2022-11-21T03:39:57.538Z,47.00
2022-11-21T03:42:23.940Z,43.28
2022-11-21T03:44:50.306Z,42.70
2022-11-21T03:47:17.018Z,41.47
2022-11-21T03:49:43.388Z,43.95
2022-11-21T03:52:09.777Z,42.15
2022-11-21T03:54:36.154Z,44.38
2022-11-21T03:57:02.525Z,42.95
2022-11-21T03:59:28.922Z,40.20
2022-11-21T04:01:55.332Z,46.00
2022-11-21T04:04:21.787Z,41.22
2022-11-21T04:06:48.169Z,43.25
2022-11-21T04:09:14.548Z,39.45
2022-11-21T04:11:40.956Z,39.05
2022-11-21T04:14:07.330Z,43.55
2022-11-21T04:16:33.740Z,38.95
2022-11-21T04:19:00.121Z,43.38
2022-11-21T04:21:26.551Z,39.78
2022-11-21T04:23:52.955Z,37.60
2022-11-21T04:26:19.379Z,40.65
2022-11-21T04:28:45.749Z,39.22
2022-11-21T04:31:12.262Z,38.67
2022-11-21T04:33:39.375Z,39.33
2022-11-21T04:36:07.586Z,41.75
2022-11-21T04:38:34.004Z,40.30
2022-11-21T04:41:00.516Z,40.63
2022-11-21T04:43:26.890Z,42.10
2022-11-21T04:45:53.310Z,40.33
2022-11-21T04:48:19.843Z,41.55
2022-11-21T04:50:46.839Z,40.10
2022-11-21T04:53:13.229Z,40.08
2022-11-21T04:55:39.646Z,44.65
2022-11-21T04:58:06.028Z,43.00
2022-11-21T05:00:32.425Z,44.28
2022-11-21T05:03:06.308Z,37.20
2022-11-21T05:05:33.222Z,40.60
2022-11-21T05:07:59.662Z,39.97
2022-11-21T05:10:26.160Z,43.47
2022-11-21T05:13:18.807Z,40.90
2022-11-21T05:15:45.672Z,35.30
2022-11-21T05:18:12.241Z,39.88
2022-11-21T05:20:38.957Z,40.53
2022-11-21T05:23:05.377Z,41.05
2022-11-21T05:25:31.765Z,47.55
2022-11-21T05:27:58.289Z,37.90
2022-11-21T05:30:24.751Z,41.83
2022-11-21T05:32:51.170Z,40.55
2022-11-21T05:35:17.558Z,40.42
2022-11-21T05:37:43.942Z,48.05
2022-11-21T05:40:10.964Z,43.53
2022-11-21T05:43:01.233Z,42.10
2022-11-21T05:45:27.626Z,42.90
2022-11-21T05:47:54.072Z,42.95
2022-11-21T05:50:20.464Z,43.15
2022-11-21T05:52:46.865Z,41.50
2022-11-21T05:55:13.314Z,42.20
2022-11-21T05:57:39.718Z,42.22
2022-11-21T06:00:06.686Z,37.60
2022-11-21T06:02:51.935Z,40.65
2022-11-21T06:05:18.358Z,42.80
2022-11-21T06:07:45.899Z,38.60
2022-11-21T06:10:12.308Z,39.90
2022-11-21T06:12:38.706Z,41.50
2022-11-21T06:15:05.309Z,39.72
2022-11-21T06:17:32.436Z,39.83
2022-11-21T06:19:58.823Z,40.58
2022-11-21T06:22:25.260Z,41.38
2022-11-21T06:24:51.643Z,37.67
2022-11-21T06:27:18.050Z,42.60
2022-11-21T06:29:44.451Z,46.00
2022-11-21T06:32:11.094Z,39.85
2022-11-21T06:34:37.845Z,41.53
2022-11-21T06:37:04.248Z,40.38
2022-11-21T06:39:30.694Z,43.60
2022-11-21T06:41:57.143Z,40.47
2022-11-21T06:44:23.526Z,43.28
2022-11-21T06:46:51.668Z,40.78
2022-11-21T06:49:18.394Z,43.55
2022-11-21T06:51:44.814Z,45.17
2022-11-21T06:54:15.207Z,45.00
2022-11-21T06:56:43.665Z,44.10
2022-11-21T06:59:10.078Z,44.47
2022-11-21T07:01:37.072Z,41.85
2022-11-21T07:04:03.667Z,42.13
2022-11-21T07:06:30.068Z,39.60
2022-11-21T07:09:25.243Z,40.05
2022-11-21T07:11:43.089Z,40.17
2022-11-21T07:14:09.774Z,43.70
2022-11-21T07:16:36.329Z,46.85
2022-11-21T07:19:02.928Z,42.50
2022-11-21T07:21:29.432Z,49.67
2022-11-21T07:23:55.831Z,49.25
2022-11-21T07:26:22.209Z,48.72
2022-11-21T07:28:48.891Z,48.47
2022-11-21T07:31:15.279Z,54.85
2022-11-21T07:33:43.503Z,51.28
2022-11-21T07:36:10.804Z,51.17
2022-11-21T07:38:37.210Z,55.20
2022-11-21T07:41:03.606Z,56.33
2022-11-21T07:43:29.993Z,48.38
2022-11-21T07:45:56.575Z,50.67
2022-11-21T07:48:22.997Z,55.28
2022-11-21T07:50:49.390Z,54.25
2022-11-21T07:53:15.794Z,55.17
2022-11-21T07:55:42.564Z,59.03
2022-11-21T07:58:11.728Z,58.58
2022-11-21T08:00:39.990Z,55.67
2022-11-21T08:03:07.186Z,60.78
2022-11-21T08:05:37.916Z,56.72
2022-11-21T08:08:08.958Z,69.53
2022-11-21T08:13:09.315Z,59.67
2022-11-21T08:15:36.597Z,57.67
2022-11-21T08:18:09.647Z,50.67
2022-11-21T08:20:36.330Z,55.13
2022-11-21T08:23:03.002Z,52.20
2022-11-21T08:25:29.405Z,39.20
2022-11-21T08:27:59.567Z,57.47
2022-11-21T08:30:26.120Z,46.60
2022-11-21T08:32:52.636Z,46.20
2022-11-21T08:35:19.164Z,51.58
2022-11-21T08:37:45.579Z,47.15
2022-11-21T08:40:11.974Z,54.35
2022-11-21T08:42:38.382Z,50.60
2022-11-21T08:45:05.957Z,51.63
2022-11-21T08:47:33.763Z,47.55
2022-11-21T08:50:04.328Z,45.78
2022-11-21T08:52:33.937Z,46.15
2022-11-21T08:55:00.322Z,48.42
2022-11-21T08:57:26.755Z,47.85
2022-11-21T08:59:53.134Z,36.28
2022-11-21T09:02:19.534Z,36.58
2022-11-21T09:04:45.913Z,34.55
2022-11-21T09:07:12.349Z,34.55
2022-11-21T09:09:38.765Z,31.27
2022-11-21T09:12:05.465Z,36.00
2022-11-21T09:14:50.358Z,32.40
2022-11-21T09:17:35.422Z,33.90
2022-11-21T09:20:01.964Z,35.05
2022-11-21T09:22:28.408Z,35.60
2022-11-21T09:24:54.851Z,31.67
2022-11-21T09:27:21.294Z,36.60
2022-11-21T09:29:53.685Z,39.83
2022-11-21T09:32:20.568Z,34.72
2022-11-21T09:34:46.960Z,32.92
2022-11-21T09:37:13.333Z,37.13
2022-11-21T09:39:39.708Z,30.35
2022-11-21T09:42:33.445Z,33.53
2022-11-21T09:45:44.660Z,31.67
2022-11-21T09:48:20.182Z,25.85
2022-11-21T09:50:56.920Z,31.33
2022-11-21T09:53:53.005Z,27.60
2022-11-21T09:56:23.310Z,21.80
2022-11-21T09:59:22.941Z,26.20
2022-11-21T10:01:49.361Z,26.95
2022-11-21T10:04:15.828Z,26.48
2022-11-21T10:06:53.769Z,22.15
2022-11-21T10:09:34.650Z,31.23
2022-11-21T10:12:25.216Z,25.25
2022-11-21T10:15:33.633Z,31.23
2022-11-21T10:18:23.209Z,35.30
2022-11-21T10:21:13.835Z,39.42
2022-11-21T10:24:05.109Z,25.77
2022-11-21T10:29:25.090Z,33.58
2022-11-21T10:31:55.841Z,37.03
2022-11-21T10:34:27.153Z,34.33
2022-11-21T10:36:58.890Z,37.15
2022-11-21T10:39:48.133Z,37.92
2022-11-21T10:42:36.126Z,42.17
2022-11-21T10:45:19.890Z,43.97
2022-11-21T10:47:48.651Z,43.03
2022-11-21T10:50:42.811Z,39.33
2022-11-21T10:53:33.844Z,43.05
2022-11-21T10:56:08.562Z,40.72
2022-11-21T10:58:41.843Z,37.80
2022-11-21T11:01:19.651Z,42.28
2022-11-21T11:04:06.907Z,44.03
2022-11-21T11:06:32.937Z,39.33
2022-11-21T11:08:59.505Z,34.22
2022-11-21T11:11:26.169Z,33.90
2022-11-21T11:14:11.787Z,34.25
2022-11-21T11:16:44.120Z,42.85
2022-11-21T11:19:13.574Z,36.67
2022-11-21T11:21:40.781Z,30.60
2022-11-21T11:24:10.226Z,34.22
2022-11-21T11:26:49.051Z,30.63
2022-11-21T11:29:30.739Z,42.25
2022-11-21T11:32:03.801Z,39.00
2022-11-21T11:34:37.207Z,38.33
2022-11-21T11:37:12.483Z,35.55
2022-11-21T11:39:40.889Z,40.83
2022-11-21T11:42:45.153Z,43.10
2022-11-21T11:45:30.332Z,37.35
2022-11-21T11:48:01.985Z,37.55
2022-11-21T11:50:45.449Z,39.35
2022-11-21T11:53:18.311Z,42.28
2022-11-21T11:56:12.571Z,37.15
2022-11-21T11:58:50.529Z,41.22
2022-11-21T12:01:32.218Z,40.75
2022-11-21T12:04:12.325Z,44.28
2022-11-21T12:10:17.962Z,41.22
2022-11-21T12:13:02.593Z,42.72
2022-11-21T12:15:51.168Z,37.90
2022-11-21T12:18:20.792Z,41.60
2022-11-21T12:21:14.384Z,37.85
2022-11-21T12:23:58.164Z,34.15
2022-11-21T12:26:53.806Z,43.45
2022-11-21T12:29:47.112Z,35.90
2022-11-21T12:32:43.624Z,35.05
2022-11-21T12:36:16.733Z,32.90
2022-11-21T12:38:57.862Z,39.42
2022-11-21T12:41:53.982Z,29.83
2022-11-21T12:44:53.862Z,34.20
2022-11-21T12:47:26.214Z,34.78
2022-11-21T12:50:37.012Z,35.28
2022-11-21T12:53:45.001Z,33.42
2022-11-21T12:56:25.961Z,31.35
2022-11-21T12:58:55.998Z,31.33
2022-11-21T13:01:42.279Z,32.42
2022-11-21T13:04:15.425Z,31.00
2022-11-21T13:06:44.549Z,31.40
2022-11-21T13:09:18.900Z,29.75
2022-11-21T13:12:18.241Z,29.77
2022-11-21T13:14:52.354Z,29.10
2022-11-21T13:17:25.982Z,28.75
2022-11-21T13:20:02.107Z,28.58
2022-11-21T13:22:37.318Z,27.15
2022-11-21T13:25:03.735Z,26.77
2022-11-21T13:27:38.949Z,24.00
2022-11-21T13:30:08.948Z,23.15
2022-11-21T13:32:40.269Z,24.95
2022-11-21T13:35:19.110Z,24.02
2022-11-21T13:38:10.183Z,24.27
2022-11-21T13:40:39.699Z,22.70
2022-11-21T13:43:31.940Z,27.80
2022-11-21T13:45:58.418Z,31.13
2022-11-21T13:48:49.778Z,32.70
2022-11-21T13:54:29.888Z,33.83
2022-11-21T13:57:24.980Z,29.70
2022-11-21T13:59:54.358Z,29.45
2022-11-21T14:02:48.342Z,23.48
2022-11-21T14:05:34.407Z,23.60
2022-11-21T14:08:19.377Z,22.83
2022-11-21T14:10:47.250Z,24.52
2022-11-21T14:13:31.222Z,20.70
2022-11-21T14:16:08.535Z,23.23
2022-11-21T14:18:35.919Z,27.35
2022-11-21T14:21:04.205Z,27.30
2022-11-21T14:23:33.279Z,25.55
2022-11-21T14:26:03.491Z,22.77
2022-11-21T14:28:34.828Z,25.87
2022-11-21T14:31:03.668Z,26.42
2022-11-21T14:33:32.497Z,26.60
2022-11-21T14:36:06.256Z,24.98
2022-11-21T14:38:42.076Z,24.55
2022-11-21T14:41:26.655Z,27.88
2022-11-21T14:43:58.876Z,26.90
2022-11-21T14:46:27.091Z,28.25
2022-11-21T14:48:54.280Z,24.60
2022-11-21T14:51:23.165Z,28.15
2022-11-21T14:53:52.781Z,31.10
2022-11-21T14:56:32.777Z,29.30
2022-11-21T14:59:02.606Z,30.35
2022-11-21T15:01:31.466Z,28.00
2022-11-21T15:03:58.838Z,28.40
2022-11-21T15:06:26.564Z,31.48
2022-11-21T15:12:02.451Z,35.50
2022-11-21T15:14:44.510Z,30.02
2022-11-21T15:17:15.536Z,36.28
2022-11-21T15:19:43.174Z,29.38
2022-11-21T15:22:23.706Z,34.78
2022-11-21T15:24:50.178Z,30.55
2022-11-21T15:27:24.156Z,33.67
2022-11-21T15:30:01.711Z,31.00
2022-11-21T15:32:28.183Z,32.88
2022-11-21T15:34:54.626Z,33.00
2022-11-21T15:37:23.911Z,36.38
2022-11-21T15:39:51.435Z,31.70
2022-11-21T15:42:44.009Z,34.20
2022-11-21T15:45:20.334Z,36.08
2022-11-21T15:47:47.425Z,32.33
2022-11-21T15:50:14.742Z,34.20
2022-11-21T15:52:46.371Z,35.03
2022-11-21T15:55:18.650Z,34.20
2022-11-21T15:57:14.855Z,31.08
2022-11-21T15:57:45.057Z,36.17
2022-11-21T16:00:11.961Z,39.53
2022-11-21T16:02:38.354Z,36.83
2022-11-21T16:05:05.094Z,36.50
2022-11-21T16:07:31.597Z,38.85
2022-11-21T16:09:57.994Z,38.83
2022-11-21T16:12:24.365Z,38.65
2022-11-21T16:14:50.790Z,44.00
2022-11-21T16:17:17.184Z,44.22
2022-11-21T16:19:43.580Z,46.67
2022-11-21T16:22:09.954Z,40.97
2022-11-21T16:24:36.353Z,39.72
2022-11-21T16:27:02.882Z,38.67
2022-11-21T16:29:29.643Z,39.13
2022-11-21T16:31:56.367Z,42.45
2022-11-21T16:34:22.817Z,36.05
2022-11-21T16:36:50.460Z,40.35
2022-11-21T16:39:18.671Z,39.95
2022-11-21T16:41:46.611Z,43.72
2022-11-21T16:44:15.048Z,49.63
2022-11-21T16:46:43.329Z,38.15
2022-11-21T16:49:10.207Z,39.63
2022-11-21T16:51:36.682Z,41.30
2022-11-21T16:54:08.359Z,40.40
2022-11-21T16:56:35.402Z,38.80
2022-11-21T16:59:01.789Z,44.75
2022-11-21T17:01:28.701Z,44.80
2022-11-21T17:03:55.117Z,49.47
2022-11-21T17:06:24.446Z,50.30
2022-11-21T17:08:51.017Z,46.30
2022-11-21T17:11:20.419Z,47.13
2022-11-21T17:13:48.670Z,46.92
2022-11-21T17:16:17.563Z,42.35
2022-11-21T17:18:44.358Z,49.38
2022-11-21T17:21:13.214Z,48.72
2022-11-21T17:23:41.642Z,49.08
2022-11-21T17:26:10.338Z,41.08
2022-11-21T17:28:42.325Z,48.13
2022-11-21T17:31:13.915Z,41.40
2022-11-21T17:33:40.477Z,40.63
2022-11-21T17:36:11.032Z,44.03
2022-11-21T17:38:38.414Z,44.22
2022-11-21T17:41:06.964Z,41.08
2022-11-21T17:43:34.388Z,41.33
2022-11-21T17:46:07.913Z,40.63
2022-11-21T17:48:37.139Z,44.95
2022-11-21T17:51:06.282Z,43.58
2022-11-21T17:53:37.734Z,44.60
2022-11-21T17:56:06.531Z,46.75
2022-11-21T17:58:33.487Z,46.63
2022-11-21T18:01:02.332Z,46.08
2022-11-21T18:03:29.737Z,77.40
2022-11-21T18:06:16.506Z,97.13
2022-11-21T18:08:44.926Z,71.95
2022-11-21T18:11:13.212Z,55.72
2022-11-21T18:13:39.958Z,46.50
2022-11-21T18:16:17.792Z,42.50
2022-11-21T18:18:44.431Z,51.03
2022-11-21T18:21:16.412Z,51.30
2022-11-21T18:23:43.990Z,48.53
2022-11-21T18:26:16.040Z,44.58
2022-11-21T18:28:42.835Z,46.92
2022-11-21T18:31:11.761Z,44.13
2022-11-21T18:33:38.942Z,45.00
2022-11-21T18:36:07.368Z,44.80
2022-11-21T18:38:56.519Z,50.22
2022-11-21T18:41:27.857Z,47.97
2022-11-21T18:43:56.154Z,47.33
2022-11-21T18:46:24.360Z,46.20
2022-11-21T18:49:08.099Z,46.60
2022-11-21T18:51:35.809Z,58.83
2022-11-21T18:54:07.001Z,46.13
2022-11-21T18:56:34.341Z,48.38
2022-11-21T18:59:00.744Z,52.22
2022-11-21T19:01:29.245Z,54.95
2022-11-21T19:03:56.784Z,50.58
2022-11-21T19:06:25.458Z,53.97
2022-11-21T19:08:53.546Z,45.05
2022-11-21T19:11:21.658Z,47.35
2022-11-21T19:13:48.674Z,45.95
2022-11-21T19:16:18.329Z,51.58
2022-11-21T19:18:54.950Z,52.55
2022-11-21T19:21:31.434Z,53.95
2022-11-21T19:23:57.827Z,58.72
2022-11-21T19:26:24.259Z,51.08
2022-11-21T19:28:50.625Z,53.08
2022-11-21T19:31:18.321Z,53.17
2022-11-21T19:33:45.101Z,62.90
2022-11-21T19:36:17.494Z,49.72
2022-11-21T19:38:50.235Z,51.47
2022-11-21T19:41:22.561Z,43.88
2022-11-21T19:43:50.866Z,50.28
2022-11-21T19:46:22.438Z,46.28
2022-11-21T19:48:50.750Z,49.17
2022-11-21T19:51:18.253Z,44.47
2022-11-21T19:53:45.388Z,45.65
2022-11-21T19:56:14.594Z,49.20
2022-11-21T19:58:42.258Z,51.47
2022-11-21T20:01:14.375Z,41.72
2022-11-21T20:03:43.554Z,40.90
2022-11-21T20:06:46.242Z,57.22
2022-11-21T20:09:15.596Z,46.38
2022-11-21T20:11:43.763Z,59.25
2022-11-21T20:14:11.638Z,59.38
2022-11-21T20:16:42.722Z,72.88
2022-11-21T20:19:11.960Z,46.92
2022-11-21T20:21:38.759Z,59.45
2022-11-21T20:24:05.820Z,46.33
2022-11-21T20:26:33.274Z,58.70
2022-11-21T20:28:59.666Z,40.95
2022-11-21T20:31:30.128Z,48.30
2022-11-21T20:36:25.882Z,34.75
2022-11-21T20:38:53.885Z,31.55
2022-11-21T20:41:22.401Z,40.45
2022-11-21T20:44:35.927Z,51.63
2022-11-21T20:46:39.215Z,37.28
2022-11-21T20:49:05.612Z,39.30
2022-11-21T20:53:06.317Z,35.38
2022-11-21T20:54:18.622Z,32.92
2022-11-21T20:56:46.106Z,32.88
2022-11-21T20:59:12.490Z,32.60
2022-11-21T21:01:39.257Z,32.90
2022-11-21T21:04:05.770Z,31.55
2022-11-21T21:06:32.272Z,32.70
2022-11-21T21:08:58.665Z,27.60
2022-11-21T21:11:50.265Z,27.60
2022-11-21T21:14:11.548Z,25.85
2022-11-21T21:16:37.973Z,28.23
2022-11-21T21:19:04.360Z,33.05
2022-11-21T21:21:30.844Z,36.78
2022-11-21T21:24:02.514Z,30.20
2022-11-21T21:26:34.485Z,31.00
2022-11-21T21:29:03.775Z,31.30
2022-11-21T21:31:30.664Z,31.27
2022-11-21T21:33:57.907Z,30.02
2022-11-21T21:36:25.897Z,30.25
2022-11-21T21:38:53.847Z,27.20
2022-11-21T21:41:21.624Z,30.88
2022-11-21T21:43:52.523Z,28.08
2022-11-21T21:46:20.907Z,29.42
2022-11-21T21:48:48.268Z,27.95
2022-11-21T21:51:20.172Z,25.98
2022-11-21T21:53:48.394Z,29.70
2022-11-21T21:56:16.578Z,28.13
2022-11-21T21:58:44.443Z,27.50
2022-11-21T22:01:13.462Z,30.08
2022-11-21T22:03:40.713Z,29.00
2022-11-21T22:06:15.366Z,34.85
2022-11-21T22:08:41.854Z,31.83
2022-11-21T22:11:10.624Z,27.05
2022-11-21T22:13:38.622Z,28.73
2022-11-21T22:16:06.370Z,29.40
2022-11-21T22:18:33.040Z,28.92
2022-11-21T22:20:59.860Z,34.13
2022-11-21T22:23:26.933Z,27.25
2022-11-21T22:25:57.857Z,30.88
2022-11-21T22:28:25.161Z,31.25
2022-11-21T22:30:58.644Z,33.25
2022-11-21T22:33:26.324Z,28.52
2022-11-21T22:35:58.338Z,30.70
2022-11-21T22:38:24.732Z,32.22
2022-11-21T22:40:51.160Z,33.58
2022-11-21T22:43:17.643Z,36.67
2022-11-21T22:45:45.346Z,34.55
2022-11-21T22:48:12.432Z,31.40
2022-11-21T22:50:43.467Z,35.17
2022-11-21T22:53:09.874Z,33.53
2022-11-21T22:55:36.257Z,31.75
2022-11-21T22:58:02.638Z,30.00
2022-11-21T23:00:29.024Z,30.58
2022-11-21T23:02:55.402Z,35.85
2022-11-21T23:05:21.788Z,29.48
2022-11-21T23:07:48.206Z,28.83
2022-11-21T23:10:14.725Z,30.13
2022-11-21T23:12:41.116Z,25.58
2022-11-21T23:15:07.828Z,30.55
2022-11-21T23:17:34.207Z,29.77
2022-11-21T23:20:00.582Z,31.35
2022-11-21T23:22:26.964Z,32.03
2022-11-21T23:24:53.336Z,26.70
2022-11-21T23:27:19.713Z,32.33
2022-11-21T23:29:46.085Z,27.60
2022-11-21T23:32:12.469Z,31.27
2022-11-21T23:34:39.023Z,30.13
2022-11-21T23:37:05.433Z,32.95
2022-11-21T23:39:32.188Z,32.50
2022-11-21T23:41:58.780Z,32.22
2022-11-21T23:44:25.259Z,32.20
2022-11-21T23:46:51.651Z,33.92
2022-11-21T23:49:18.041Z,37.60
2022-11-21T23:51:44.429Z,35.67
2022-11-21T23:54:10.842Z,34.13
2022-11-21T23:56:37.251Z,39.80
2022-11-21T23:59:03.644Z,38.00
